createdAt,value
2022-11-29T00:04:45.695Z,6.81
2022-11-29T00:09:47.437Z,6.83
2022-11-29T00:14:49.012Z,6.84
2022-11-29T00:19:50.574Z,6.79
2022-11-29T00:24:52.130Z,6.79
2022-11-29T00:29:53.690Z,6.82
2022-11-29T00:34:59.250Z,6.82
2022-11-29T00:40:01.098Z,6.71
2022-11-29T00:45:02.734Z,6.83
2022-11-29T00:50:06.115Z,6.87
2022-11-29T00:55:08.046Z,6.87
2022-11-29T01:00:10.085Z,6.90
2022-11-29T01:05:11.647Z,6.92
2022-11-29T01:10:13.246Z,6.96
2022-11-29T01:15:14.826Z,6.93
2022-11-29T01:20:16.455Z,6.89
2022-11-29T01:25:19.319Z,6.92
2022-11-29T01:30:21.358Z,6.93
2022-11-29T01:35:22.893Z,6.94
2022-11-29T01:40:24.415Z,6.94
2022-11-29T01:45:26.619Z,6.92
2022-11-29T01:50:28.203Z,6.92
2022-11-29T01:55:29.901Z,6.93
2022-11-29T02:00:32.424Z,6.99
2022-11-29T02:05:34.194Z,6.94
2022-11-29T02:10:58.695Z,6.93
2022-11-29T02:16:08.001Z,6.93
2022-11-29T02:21:34.300Z,6.98
2022-11-29T02:26:54.670Z,6.90
2022-11-29T02:32:14.432Z,6.87
2022-11-29T02:37:34.284Z,6.93
2022-11-29T02:42:56.125Z,6.86
2022-11-29T02:48:14.108Z,6.82
2022-11-29T02:53:17.430Z,6.87
2022-11-29T02:58:31.606Z,6.82
2022-11-29T03:03:38.778Z,6.75
2022-11-29T03:08:52.045Z,6.76
2022-11-29T03:14:05.810Z,6.79
2022-11-29T03:19:36.024Z,6.76
2022-11-29T03:24:59.522Z,6.76
2022-11-29T03:30:04.127Z,6.63
2022-11-29T03:35:05.729Z,6.75
2022-11-29T03:40:15.664Z,6.68
2022-11-29T03:45:42.590Z,6.74
2022-11-29T03:50:54.167Z,6.68
2022-11-29T03:56:35.261Z,6.59
2022-11-29T04:01:42.512Z,6.74
2022-11-29T04:06:47.265Z,6.72
2022-11-29T04:12:04.034Z,6.74
2022-11-29T04:17:24.106Z,6.69
2022-11-29T04:22:56.697Z,6.65
2022-11-29T04:28:04.047Z,6.63
2022-11-29T04:33:24.286Z,6.61
2022-11-29T04:39:09.106Z,6.61
2022-11-29T04:44:37.052Z,6.57
2022-11-29T04:49:57.124Z,6.60
2022-11-29T04:55:29.419Z,6.58
2022-11-29T05:00:39.505Z,6.61
2022-11-29T05:05:48.061Z,6.63
2022-11-29T05:10:56.763Z,6.62
2022-11-29T05:16:22.474Z,6.62
2022-11-29T05:21:39.043Z,6.63
2022-11-29T05:26:54.655Z,6.63
2022-11-29T05:32:04.446Z,6.59
2022-11-29T05:37:22.046Z,6.53
2022-11-29T05:42:49.120Z,6.53
2022-11-29T05:48:21.729Z,6.55
2022-11-29T05:53:47.691Z,6.64
2022-11-29T05:59:28.346Z,6.63
2022-11-29T06:04:55.922Z,6.57
2022-11-29T06:10:12.341Z,6.55
2022-11-29T06:15:19.898Z,6.46
2022-11-29T06:20:53.751Z,6.56
2022-11-29T06:26:00.691Z,6.59
2022-11-29T06:31:10.485Z,6.56
2022-11-29T06:36:19.304Z,6.52
2022-11-29T06:41:22.854Z,6.57
2022-11-29T06:46:36.022Z,6.50
2022-11-29T06:51:40.637Z,6.49
2022-11-29T06:56:59.185Z,6.57
2022-11-29T07:02:28.028Z,6.57
2022-11-29T07:07:30.024Z,6.49
2022-11-29T07:12:31.980Z,6.50
2022-11-29T07:17:43.898Z,6.55
2022-11-29T07:23:07.044Z,6.50
2022-11-29T07:28:18.726Z,6.53
2022-11-29T07:33:52.663Z,6.35
2022-11-29T07:39:20.112Z,6.55
2022-11-29T07:44:30.447Z,6.57
2022-11-29T07:49:31.988Z,6.55
2022-11-29T07:54:33.579Z,6.53
2022-11-29T07:59:35.133Z,6.61
2022-11-29T08:04:41.302Z,6.62
2022-11-29T08:09:42.963Z,6.67
2022-11-29T08:14:44.760Z,6.67
2022-11-29T08:19:46.526Z,6.69
2022-11-29T08:24:48.433Z,6.71
2022-11-29T08:29:50.140Z,6.75
2022-11-29T08:34:51.814Z,6.79
2022-11-29T08:39:53.358Z,6.83
2022-11-29T08:44:54.909Z,6.85
2022-11-29T08:50:02.350Z,6.83
2022-11-29T08:55:04.070Z,6.83
2022-11-29T09:00:06.569Z,6.82
2022-11-29T09:05:09.026Z,6.88
2022-11-29T09:10:11.266Z,6.89
2022-11-29T09:15:13.001Z,6.87
2022-11-29T09:20:14.595Z,6.88
2022-11-29T09:25:16.257Z,6.89
2022-11-29T09:30:23.489Z,6.98
2022-11-29T09:35:25.597Z,6.95
2022-11-29T09:40:56.008Z,7.05
2022-11-29T09:46:04.436Z,7.04
2022-11-29T09:51:24.159Z,7.05
2022-11-29T09:56:41.391Z,7.10
2022-11-29T10:01:46.807Z,7.04
2022-11-29T10:06:56.785Z,7.10
2022-11-29T10:12:13.621Z,7.12
2022-11-29T10:17:40.133Z,7.07
2022-11-29T10:23:16.364Z,7.10
2022-11-29T10:28:21.066Z,6.97
2022-11-29T10:33:33.193Z,7.14
2022-11-29T10:38:34.736Z,7.19
2022-11-29T10:43:37.449Z,7.15
2022-11-29T10:48:39.015Z,7.17
2022-11-29T10:53:40.659Z,7.21
2022-11-29T10:59:03.233Z,7.20
2022-11-29T11:04:07.408Z,7.24
2022-11-29T11:09:35.718Z,7.23
2022-11-29T11:14:38.595Z,7.24
2022-11-29T11:19:40.259Z,7.30
2022-11-29T11:24:42.095Z,7.30
2022-11-29T11:29:44.401Z,7.26
2022-11-29T11:34:57.351Z,7.21
2022-11-29T11:40:25.676Z,7.29
2022-11-29T11:45:32.872Z,7.31
2022-11-29T11:50:46.761Z,7.14
2022-11-29T11:55:58.768Z,7.22
2022-11-29T12:01:12.498Z,7.29
2022-11-29T12:06:54.981Z,7.30
2022-11-29T12:12:00.491Z,7.30
2022-11-29T12:17:08.180Z,7.31
2022-11-29T12:22:14.276Z,7.31
2022-11-29T12:27:16.253Z,7.27
2022-11-29T12:32:51.757Z,7.32
2022-11-29T12:38:03.506Z,7.33
2022-11-29T12:43:13.160Z,7.39
2022-11-29T12:48:20.324Z,7.39
2022-11-29T12:53:42.998Z,7.40
2022-11-29T12:58:53.355Z,7.39
2022-11-29T13:04:21.872Z,7.43
2022-11-29T13:09:41.829Z,7.41
2022-11-29T13:14:50.828Z,7.40
2022-11-29T13:19:56.203Z,7.38
2022-11-29T13:25:01.144Z,7.33
2022-11-29T13:30:04.338Z,7.38
2022-11-29T13:35:21.673Z,7.37
2022-11-29T13:40:56.033Z,7.36
2022-11-29T13:46:20.262Z,7.37
2022-11-29T13:51:28.604Z,7.30
2022-11-29T13:56:42.618Z,7.27
2022-11-29T14:01:50.592Z,7.31
2022-11-29T14:07:03.284Z,7.24
2022-11-29T14:12:19.114Z,7.23
2022-11-29T14:17:51.474Z,7.23
2022-11-29T14:23:05.349Z,7.22
2022-11-29T14:28:13.170Z,7.21
2022-11-29T14:33:42.572Z,7.17
2022-11-29T14:39:04.893Z,7.16
2022-11-29T14:44:26.053Z,7.15
2022-11-29T14:49:28.893Z,7.16
2022-11-29T14:54:30.471Z,7.10
2022-11-29T14:59:51.651Z,7.10
2022-11-29T15:04:55.818Z,7.10
2022-11-29T15:10:03.959Z,7.04
2022-11-29T15:15:38.098Z,7.00
2022-11-29T15:20:55.491Z,7.06
2022-11-29T15:26:00.609Z,7.02
2022-11-29T15:31:04.846Z,7.06
2022-11-29T15:36:20.501Z,6.98
2022-11-29T15:41:29.246Z,7.04
2022-11-29T15:46:32.879Z,7.03
2022-11-29T15:51:36.588Z,7.01
2022-11-29T15:56:52.041Z,7.00
2022-11-29T16:01:55.986Z,6.96
2022-11-29T16:06:57.934Z,6.99
2022-11-29T16:12:01.090Z,6.74
2022-11-29T16:17:03.865Z,6.97
2022-11-29T16:22:23.983Z,6.96
2022-11-29T16:27:25.740Z,6.95
2022-11-29T16:32:30.048Z,6.94
2022-11-29T16:37:38.042Z,6.93
2022-11-29T16:42:40.057Z,6.94
2022-11-29T16:47:57.849Z,6.92
2022-11-29T16:53:37.396Z,6.94
2022-11-29T16:59:17.068Z,6.87
2022-11-29T17:04:01.391Z,6.84
2022-11-29T17:09:03.315Z,6.87
2022-11-29T17:14:04.876Z,6.87
2022-11-29T17:19:06.495Z,6.90
2022-11-29T17:24:12.811Z,6.87
2022-11-29T17:29:15.427Z,6.85
2022-11-29T17:34:17.077Z,6.80
2022-11-29T17:39:20.231Z,6.84
2022-11-29T17:44:21.915Z,6.82
2022-11-29T17:49:23.475Z,6.80
2022-11-29T17:54:25.102Z,6.81
2022-11-29T17:59:26.673Z,6.77
2022-11-29T18:04:28.203Z,6.78
2022-11-29T18:09:29.755Z,6.80
2022-11-29T18:14:31.488Z,6.79
2022-11-29T18:19:33.159Z,6.77
2022-11-29T18:24:34.748Z,6.78
2022-11-29T18:29:39.296Z,6.88
2022-11-29T18:34:41.143Z,6.83
2022-11-29T18:39:42.734Z,6.83
2022-11-29T18:44:44.801Z,6.81
2022-11-29T18:49:46.632Z,6.77
2022-11-29T18:54:48.480Z,6.81
2022-11-29T18:59:50.233Z,6.76
2022-11-29T19:04:51.803Z,6.76
2022-11-29T19:09:53.449Z,6.78
2022-11-29T19:14:55.509Z,6.81
2022-11-29T19:19:57.514Z,6.80
2022-11-29T19:24:59.144Z,6.75
2022-11-29T19:30:00.747Z,6.84
2022-11-29T19:35:02.404Z,6.80
2022-11-29T19:40:04.375Z,6.80
2022-11-29T19:45:17.192Z,6.71
2022-11-29T19:50:19.445Z,6.75
2022-11-29T19:55:20.999Z,6.73
2022-11-29T20:00:22.718Z,6.74
2022-11-29T20:05:24.416Z,6.72
2022-11-29T20:10:27.444Z,6.74
2022-11-29T20:15:29.037Z,6.72
2022-11-29T20:20:30.897Z,6.76
2022-11-29T20:25:33.686Z,6.70
2022-11-29T20:30:35.232Z,6.72
2022-11-29T20:35:36.924Z,6.63
2022-11-29T20:41:09.854Z,6.61
2022-11-29T20:46:11.677Z,6.62
2022-11-29T20:51:13.773Z,6.57
2022-11-29T20:56:15.480Z,6.49
2022-11-29T21:01:17.136Z,6.46
2022-11-29T21:06:18.817Z,6.42
2022-11-29T21:11:20.775Z,6.42
2022-11-29T21:16:29.464Z,6.35
2022-11-29T21:21:44.597Z,6.29
2022-11-29T21:26:55.378Z,6.35
2022-11-29T21:31:57.269Z,6.31
2022-11-29T21:36:59.824Z,6.22
2022-11-29T21:42:01.862Z,6.25
2022-11-29T21:47:03.475Z,6.23
2022-11-29T21:52:06.321Z,6.29
2022-11-29T21:57:07.879Z,6.27
2022-11-29T22:02:09.631Z,6.39
2022-11-29T22:07:11.255Z,6.27
2022-11-29T22:12:33.067Z,6.24
2022-11-29T22:17:34.373Z,6.23
2022-11-29T22:22:35.911Z,6.22
2022-11-29T22:27:37.467Z,6.26
2022-11-29T22:32:39.024Z,6.26
2022-11-29T22:37:41.301Z,6.19
2022-11-29T22:42:43.218Z,6.25
2022-11-29T22:47:44.775Z,6.23
2022-11-29T22:52:46.322Z,6.32
2022-11-29T22:57:47.910Z,6.26
2022-11-29T23:02:49.508Z,6.29
2022-11-29T23:07:54.664Z,6.20
2022-11-29T23:12:56.341Z,6.25
2022-11-29T23:17:57.889Z,6.24
2022-11-29T23:23:00.620Z,6.23
2022-11-29T23:28:02.172Z,6.27
2022-11-29T23:33:03.754Z,6.17
2022-11-29T23:38:06.150Z,6.25
2022-11-29T23:43:07.693Z,6.21
2022-11-29T23:48:09.276Z,6.16
2022-11-29T23:53:13.158Z,6.15
2022-11-29T23:58:14.792Z,6.19
